sensor_id;sensor_type;location;lat;lon;timestamp;pressure;altitude;pressure_sealevel;temperature;humidity
59194;BME280;44967;48.598;15.650;2023-04-04T11:27:05;98809.69;;;8.00;29.29
59194;BME280;44967;48.598;15.650;2023-04-04T11:29:50;98798.94;;;7.41;29.37
59194;BME280;44967;48.598;15.650;2023-04-04T11:32:41;98787.03;;;7.89;30.86
59194;BME280;44967;48.598;15.650;2023-04-04T11:35:10;98792.00;;;8.13;29.39
59194;BME280;44967;48.598;15.650;2023-04-04T11:40:18;98795.41;;;8.18;31.56
59194;BME280;44967;48.598;15.650;2023-04-04T11:42:50;98795.19;;;7.63;31.39
59194;BME280;44967;48.598;15.650;2023-04-04T11:45:20;98771.28;;;7.83;32.55
59194;BME280;44967;48.598;15.650;2023-04-04T11:47:46;98799.75;;;7.47;31.81
59194;BME280;44967;48.598;15.650;2023-04-04T11:50:13;98788.69;;;7.12;32.25
59194;BME280;44967;48.598;15.650;2023-04-04T11:52:41;98794.22;;;6.83;31.90
59194;BME280;44967;48.598;15.650;2023-04-04T11:55:17;98792.22;;;7.08;33.05
59194;BME280;44967;48.598;15.650;2023-04-04T11:57:47;98788.47;;;7.38;31.81
59194;BME280;44967;48.598;15.650;2023-04-04T12:00:35;98781.81;;;7.84;33.32
59194;BME280;44967;48.598;15.650;2023-04-04T12:03:07;98783.75;;;7.67;32.50
59194;BME280;44967;48.598;15.650;2023-04-04T12:05:36;98772.50;;;7.56;30.88
59194;BME280;44967;48.598;15.650;2023-04-04T12:08:03;98765.88;;;7.16;33.03
59194;BME280;44967;48.598;15.650;2023-04-04T12:10:31;98775.78;;;6.85;31.62
59194;BME280;44967;48.598;15.650;2023-04-04T12:12:58;98771.69;;;6.49;32.22
59194;BME280;44967;48.598;15.650;2023-04-04T12:15:26;98772.69;;;6.31;32.35
59194;BME280;44967;48.598;15.650;2023-04-04T12:17:54;98765.41;;;6.70;32.70
59194;BME280;44967;48.598;15.650;2023-04-04T12:20:22;98761.00;;;6.73;30.77
59194;BME280;44967;48.598;15.650;2023-04-04T12:22:49;98753.91;;;6.84;31.83
59194;BME280;44967;48.598;15.650;2023-04-04T12:25:18;98761.00;;;6.72;31.49
59194;BME280;44967;48.598;15.650;2023-04-04T12:27:46;98744.44;;;6.65;33.93
59194;BME280;44967;48.598;15.650;2023-04-04T12:30:12;98731.09;;;6.89;33.37
59194;BME280;44967;48.598;15.650;2023-04-04T12:32:44;98745.66;;;7.25;32.43
59194;BME280;44967;48.598;15.650;2023-04-04T12:35:12;98746.50;;;6.24;31.09
59194;BME280;44967;48.598;15.650;2023-04-04T12:38:03;98754.19;;;6.51;32.75
59194;BME280;44967;48.598;15.650;2023-04-04T12:40:34;98753.13;;;6.75;34.69
59194;BME280;44967;48.598;15.650;2023-04-04T12:43:06;98745.22;;;6.78;33.16
59194;BME280;44967;48.598;15.650;2023-04-04T12:45:38;98739.94;;;6.82;32.85
59194;BME280;44967;48.598;15.650;2023-04-04T12:48:26;98740.00;;;6.75;32.13
59194;BME280;44967;48.598;15.650;2023-04-04T12:50:54;98737.34;;;6.78;32.41
59194;BME280;44967;48.598;15.650;2023-04-04T12:53:24;98745.38;;;6.56;33.10
59194;BME280;44967;48.598;15.650;2023-04-04T12:55:53;98749.81;;;6.51;32.11
59194;BME280;44967;48.598;15.650;2023-04-04T12:58:21;98734.00;;;6.56;32.08
59194;BME280;44967;48.598;15.650;2023-04-04T13:00:50;98749.84;;;6.42;31.11
59194;BME280;44967;48.598;15.650;2023-04-04T13:03:21;98744.53;;;6.54;31.01
59194;BME280;44967;48.598;15.650;2023-04-04T13:05:48;98727.16;;;6.32;31.33
59194;BME280;44967;48.598;15.650;2023-04-04T13:08:14;98717.22;;;6.72;34.31
59194;BME280;44967;48.598;15.650;2023-04-04T13:11:00;98721.47;;;6.90;32.55
59194;BME280;44967;48.598;15.650;2023-04-04T13:15:57;98716.06;;;7.05;32.87
59194;BME280;44967;48.598;15.650;2023-04-04T13:18:25;98724.75;;;7.13;32.33
59194;BME280;44967;48.598;15.650;2023-04-04T13:20:52;98710.59;;;7.26;33.92
59194;BME280;44967;48.598;15.650;2023-04-04T13:23:21;98700.06;;;7.29;33.35
59194;BME280;44967;48.598;15.650;2023-04-04T13:25:47;98707.09;;;7.24;33.32
59194;BME280;44967;48.598;15.650;2023-04-04T13:28:14;98703.63;;;7.22;33.71
59194;BME280;44967;48.598;15.650;2023-04-04T13:30:40;98696.63;;;7.23;32.84
59194;BME280;44967;48.598;15.650;2023-04-04T13:33:08;98682.63;;;7.22;31.93
59194;BME280;44967;48.598;15.650;2023-04-04T13:35:34;98688.66;;;7.29;30.48
59194;BME280;44967;48.598;15.650;2023-04-04T13:38:00;98690.91;;;6.83;32.27
59194;BME280;44967;48.598;15.650;2023-04-04T13:40:26;98689.59;;;7.25;32.90
59194;BME280;44967;48.598;15.650;2023-04-04T13:42:52;98684.97;;;7.46;33.64
59194;BME280;44967;48.598;15.650;2023-04-04T13:45:18;98679.06;;;7.23;33.20
59194;BME280;44967;48.598;15.650;2023-04-04T13:47:44;98676.06;;;7.58;32.46
59194;BME280;44967;48.598;15.650;2023-04-04T13:50:10;98697.41;;;7.31;31.86
59194;BME280;44967;48.598;15.650;2023-04-04T13:52:35;98689.34;;;7.46;31.73
59194;BME280;44967;48.598;15.650;2023-04-04T13:55:05;98674.91;;;7.05;30.58
59194;BME280;44967;48.598;15.650;2023-04-04T13:57:31;98673.81;;;7.26;32.10
59194;BME280;44967;48.598;15.650;2023-04-04T13:59:57;98686.25;;;7.09;31.53
59194;BME280;44967;48.598;15.650;2023-04-04T14:02:23;98680.81;;;7.24;32.04
59194;BME280;44967;48.598;15.650;2023-04-04T14:04:49;98684.28;;;7.29;33.75
59194;BME280;44967;48.598;15.650;2023-04-04T14:07:14;98680.72;;;7.33;32.07
59194;BME280;44967;48.598;15.650;2023-04-04T14:09:40;98678.84;;;7.43;31.06
59194;BME280;44967;48.598;15.650;2023-04-04T14:12:06;98686.38;;;6.97;32.27
59194;BME280;44967;48.598;15.650;2023-04-04T14:14:32;98689.06;;;6.89;32.76
59194;BME280;44967;48.598;15.650;2023-04-04T14:16:57;98692.53;;;6.93;30.77
59194;BME280;44967;48.598;15.650;2023-04-04T14:19:23;98692.09;;;7.35;33.33
59194;BME280;44967;48.598;15.650;2023-04-04T14:21:48;98681.56;;;6.51;31.27
59194;BME280;44967;48.598;15.650;2023-04-04T14:24:14;98676.06;;;6.76;31.55
59194;BME280;44967;48.598;15.650;2023-04-04T14:26:39;98682.19;;;6.79;31.69
59194;BME280;44967;48.598;15.650;2023-04-04T14:29:06;98675.09;;;6.86;32.40
59194;BME280;44967;48.598;15.650;2023-04-04T14:31:34;98669.13;;;6.69;32.63
59194;BME280;44967;48.598;15.650;2023-04-04T14:34:03;98678.31;;;7.12;33.13
59194;BME280;44967;48.598;15.650;2023-04-04T14:36:29;98671.47;;;6.97;31.51
59194;BME280;44967;48.598;15.650;2023-04-04T14:38:56;98665.13;;;7.18;32.97
59194;BME280;44967;48.598;15.650;2023-04-04T14:41:21;98665.91;;;7.26;32.85
59194;BME280;44967;48.598;15.650;2023-04-04T14:43:47;98671.13;;;7.28;33.17
59194;BME280;44967;48.598;15.650;2023-04-04T14:46:13;98670.25;;;7.30;31.69
59194;BME280;44967;48.598;15.650;2023-04-04T14:48:39;98674.03;;;7.05;32.48
59194;BME280;44967;48.598;15.650;2023-04-04T14:51:04;98670.13;;;7.41;33.05
59194;BME280;44967;48.598;15.650;2023-04-04T14:53:30;98674.00;;;7.08;31.78
59194;BME280;44967;48.598;15.650;2023-04-04T14:55:56;98681.91;;;7.05;31.88
59194;BME280;44967;48.598;15.650;2023-04-04T14:58:21;98681.13;;;6.97;32.25
59194;BME280;44967;48.598;15.650;2023-04-04T15:00:47;98687.91;;;7.16;32.00
59194;BME280;44967;48.598;15.650;2023-04-04T15:03:14;98691.41;;;7.15;32.83
59194;BME280;44967;48.598;15.650;2023-04-04T15:05:40;98690.59;;;7.11;30.98
59194;BME280;44967;48.598;15.650;2023-04-04T15:08:06;98686.97;;;7.23;30.93
59194;BME280;44967;48.598;15.650;2023-04-04T15:10:31;98687.13;;;7.11;31.70
59194;BME280;44967;48.598;15.650;2023-04-04T15:12:57;98702.06;;;7.04;31.67
59194;BME280;44967;48.598;15.650;2023-04-04T15:15:23;98697.06;;;6.79;31.78
59194;BME280;44967;48.598;15.650;2023-04-04T15:17:49;98687.16;;;7.06;32.03
59194;BME280;44967;48.598;15.650;2023-04-04T15:20:15;98689.66;;;7.17;32.29
59194;BME280;44967;48.598;15.650;2023-04-04T15:22:41;98689.88;;;6.96;31.09
59194;BME280;44967;48.598;15.650;2023-04-04T15:25:07;98684.63;;;6.96;31.07
59194;BME280;44967;48.598;15.650;2023-04-04T15:27:34;98689.34;;;6.57;31.96
59194;BME280;44967;48.598;15.650;2023-04-04T15:30:00;98680.59;;;6.58;32.45
59194;BME280;44967;48.598;15.650;2023-04-04T15:32:25;98681.66;;;6.33;32.89
59194;BME280;44967;48.598;15.650;2023-04-04T15:34:54;98669.88;;;6.80;33.68
59194;BME280;44967;48.598;15.650;2023-04-04T15:37:20;98675.94;;;6.91;32.15
59194;BME280;44967;48.598;15.650;2023-04-04T15:39:45;98667.78;;;7.17;32.15
59194;BME280;44967;48.598;15.650;2023-04-04T15:42:13;98677.56;;;7.01;32.38
59194;BME280;44967;48.598;15.650;2023-04-04T15:44:38;98677.44;;;7.11;30.84
59194;BME280;44967;48.598;15.650;2023-04-04T15:47:04;98676.81;;;6.90;31.50
59194;BME280;44967;48.598;15.650;2023-04-04T15:49:30;98677.03;;;6.66;31.27
59194;BME280;44967;48.598;15.650;2023-04-04T15:51:57;98669.09;;;6.75;31.64
59194;BME280;44967;48.598;15.650;2023-04-04T15:54:23;98677.78;;;6.80;30.78
59194;BME280;44967;48.598;15.650;2023-04-04T15:56:49;98680.50;;;6.71;30.93
59194;BME280;44967;48.598;15.650;2023-04-04T15:59:15;98673.44;;;6.77;32.83
59194;BME280;44967;48.598;15.650;2023-04-04T16:01:41;98672.03;;;6.38;32.44
59194;BME280;44967;48.598;15.650;2023-04-04T16:04:06;98670.28;;;6.33;32.20
59194;BME280;44967;48.598;15.650;2023-04-04T16:06:33;98674.53;;;6.50;32.31
59194;BME280;44967;48.598;15.650;2023-04-04T16:08:59;98674.31;;;6.78;33.53
59194;BME280;44967;48.598;15.650;2023-04-04T16:11:25;98686.94;;;6.30;32.73
59194;BME280;44967;48.598;15.650;2023-04-04T16:13:51;98680.94;;;6.16;33.08
59194;BME280;44967;48.598;15.650;2023-04-04T16:16:17;98680.78;;;6.39;32.92
59194;BME280;44967;48.598;15.650;2023-04-04T16:18:42;98690.25;;;6.52;32.56
59194;BME280;44967;48.598;15.650;2023-04-04T16:21:08;98683.34;;;6.46;32.90
59194;BME280;44967;48.598;15.650;2023-04-04T16:23:34;98690.44;;;6.31;31.86
59194;BME280;44967;48.598;15.650;2023-04-04T16:25:59;98688.47;;;6.58;33.62
59194;BME280;44967;48.598;15.650;2023-04-04T16:28:25;98687.72;;;6.46;31.89
59194;BME280;44967;48.598;15.650;2023-04-04T16:30:51;98694.25;;;5.77;32.49
59194;BME280;44967;48.598;15.650;2023-04-04T16:33:17;98688.91;;;5.98;32.79
59194;BME280;44967;48.598;15.650;2023-04-04T16:35:43;98692.34;;;6.09;32.55
59194;BME280;44967;48.598;15.650;2023-04-04T16:38:09;98692.38;;;6.03;33.32
59194;BME280;44967;48.598;15.650;2023-04-04T16:40:35;98695.13;;;5.80;33.96
59194;BME280;44967;48.598;15.650;2023-04-04T16:43:00;98692.59;;;5.60;34.23
59194;BME280;44967;48.598;15.650;2023-04-04T16:45:26;98689.94;;;5.68;34.06
59194;BME280;44967;48.598;15.650;2023-04-04T16:47:51;98700.41;;;5.66;34.70
59194;BME280;44967;48.598;15.650;2023-04-04T16:50:18;98700.47;;;5.51;34.42
59194;BME280;44967;48.598;15.650;2023-04-04T16:52:43;98702.19;;;5.54;34.24
59194;BME280;44967;48.598;15.650;2023-04-04T16:55:09;98704.94;;;5.28;33.76
59194;BME280;44967;48.598;15.650;2023-04-04T16:57:35;98705.81;;;5.27;34.28
59194;BME280;44967;48.598;15.650;2023-04-04T17:00:00;98704.06;;;5.23;34.75
59194;BME280;44967;48.598;15.650;2023-04-04T17:02:26;98708.47;;;5.09;35.96
59194;BME280;44967;48.598;15.650;2023-04-04T17:04:52;98711.09;;;5.13;35.53
59194;BME280;44967;48.598;15.650;2023-04-04T17:07:18;98709.34;;;5.03;36.09
59194;BME280;44967;48.598;15.650;2023-04-04T17:09:45;98709.34;;;5.11;35.63
59194;BME280;44967;48.598;15.650;2023-04-04T17:12:10;98713.75;;;4.97;36.39
59194;BME280;44967;48.598;15.650;2023-04-04T17:14:36;98713.72;;;5.00;35.55
59194;BME280;44967;48.598;15.650;2023-04-04T17:17:03;98714.59;;;4.94;36.38
59194;BME280;44967;48.598;15.650;2023-04-04T17:19:30;98715.47;;;4.90;36.91
59194;BME280;44967;48.598;15.650;2023-04-04T17:21:56;98712.88;;;4.80;37.39
59194;BME280;44967;48.598;15.650;2023-04-04T17:24:23;98717.22;;;4.79;37.67
59194;BME280;44967;48.598;15.650;2023-04-04T17:26:50;98724.25;;;4.62;37.81
59194;BME280;44967;48.598;15.650;2023-04-04T17:29:16;98732.09;;;4.65;38.61
59194;BME280;44967;48.598;15.650;2023-04-04T17:31:43;98725.09;;;4.68;39.35
59194;BME280;44967;48.598;15.650;2023-04-04T17:34:16;98714.63;;;4.31;39.44
59194;BME280;44967;48.598;15.650;2023-04-04T17:36:41;98726.81;;;4.25;40.47
59194;BME280;44967;48.598;15.650;2023-04-04T17:39:08;98734.63;;;4.09;42.27
59194;BME280;44967;48.598;15.650;2023-04-04T17:41:34;98727.63;;;3.96;41.44
59194;BME280;44967;48.598;15.650;2023-04-04T17:44:00;98731.16;;;4.07;40.41
59194;BME280;44967;48.598;15.650;2023-04-04T17:46:26;98744.19;;;3.95;41.01
59194;BME280;44967;48.598;15.650;2023-04-04T17:48:52;98737.19;;;3.85;41.74
59194;BME280;44967;48.598;15.650;2023-04-04T17:51:18;98747.59;;;3.71;41.98
59194;BME280;44967;48.598;15.650;2023-04-04T17:53:44;98750.16;;;3.60;42.67
59194;BME280;44967;48.598;15.650;2023-04-04T17:56:10;98753.63;;;3.58;42.44
59194;BME280;44967;48.598;15.650;2023-04-04T17:58:35;98750.09;;;3.48;42.95
59194;BME280;44967;48.598;15.650;2023-04-04T18:01:01;98754.41;;;3.36;43.77
59194;BME280;44967;48.598;15.650;2023-04-04T18:03:27;98760.41;;;3.24;44.35
59194;BME280;44967;48.598;15.650;2023-04-04T18:05:53;98769.94;;;3.17;44.78
59194;BME280;44967;48.598;15.650;2023-04-04T18:08:19;98763.00;;;3.24;45.02
59194;BME280;44967;48.598;15.650;2023-04-04T18:10:47;98754.16;;;3.01;44.03
59194;BME280;44967;48.598;15.650;2023-04-04T18:13:13;98764.66;;;3.07;44.88
59194;BME280;44967;48.598;15.650;2023-04-04T18:15:39;98764.66;;;3.05;45.19
59194;BME280;44967;48.598;15.650;2023-04-04T18:18:05;98767.22;;;3.01;45.62
59194;BME280;44967;48.598;15.650;2023-04-04T18:20:34;98775.88;;;2.91;44.79
59194;BME280;44967;48.598;15.650;2023-04-04T18:23:01;98780.16;;;2.82;45.91
59194;BME280;44967;48.598;15.650;2023-04-04T18:25:29;98770.63;;;2.88;45.07
59194;BME280;44967;48.598;15.650;2023-04-04T18:27:58;98791.25;;;2.59;45.75
59194;BME280;44967;48.598;15.650;2023-04-04T18:30:24;98792.97;;;2.55;46.06
59194;BME280;44967;48.598;15.650;2023-04-04T18:32:51;98801.59;;;2.48;46.93
59194;BME280;44967;48.598;15.650;2023-04-04T18:35:20;98792.75;;;2.34;48.13
59194;BME280;44967;48.598;15.650;2023-04-04T18:37:46;98802.28;;;2.30;48.17
59194;BME280;44967;48.598;15.650;2023-04-04T18:40:11;98806.50;;;2.19;48.13
59194;BME280;44967;48.598;15.650;2023-04-04T18:42:37;98806.72;;;2.39;48.16
59194;BME280;44967;48.598;15.650;2023-04-04T18:45:06;98814.25;;;2.12;48.80
59194;BME280;44967;48.598;15.650;2023-04-04T18:47:32;98821.44;;;2.32;47.95
59194;BME280;44967;48.598;15.650;2023-04-04T18:49:58;98817.94;;;2.33;47.92
59194;BME280;44967;48.598;15.650;2023-04-04T18:52:24;98815.34;;;2.32;48.69
59194;BME280;44967;48.598;15.650;2023-04-04T18:54:50;98822.41;;;2.45;47.97
59194;BME280;44967;48.598;15.650;2023-04-04T18:57:16;98828.47;;;2.43;49.84
59194;BME280;44967;48.598;15.650;2023-04-04T18:59:43;98824.97;;;2.39;50.38
59194;BME280;44967;48.598;15.650;2023-04-04T19:02:09;98828.47;;;2.43;50.41
59194;BME280;44967;48.598;15.650;2023-04-04T19:04:38;98831.09;;;2.46;48.21
59194;BME280;44967;48.598;15.650;2023-04-04T19:07:04;98838.13;;;2.51;49.07
59194;BME280;44967;48.598;15.650;2023-04-04T19:09:35;98838.97;;;2.47;47.70
59194;BME280;44967;48.598;15.650;2023-04-04T19:12:01;98838.13;;;2.48;50.20
59194;BME280;44967;48.598;15.650;2023-04-04T19:14:27;98839.03;;;2.55;50.32
59194;BME280;44967;48.598;15.650;2023-04-04T19:16:53;98838.09;;;2.50;49.36
59194;BME280;44967;48.598;15.650;2023-04-04T19:19:19;98838.13;;;2.48;50.63
59194;BME280;44967;48.598;15.650;2023-04-04T19:21:46;98836.47;;;2.56;49.57
59194;BME280;44967;48.598;15.650;2023-04-04T19:24:12;98844.22;;;2.52;50.20
59194;BME280;44967;48.598;15.650;2023-04-04T19:26:40;98842.56;;;2.57;50.27
59194;BME280;44967;48.598;15.650;2023-04-04T19:29:06;98846.00;;;2.56;50.40
59194;BME280;44967;48.598;15.650;2023-04-04T19:31:32;98844.28;;;2.56;50.98
59194;BME280;44967;48.598;15.650;2023-04-04T19:33:59;98853.91;;;2.63;50.68
59194;BME280;44967;48.598;15.650;2023-04-04T19:36:30;98851.25;;;2.59;48.22
59194;BME280;44967;48.598;15.650;2023-04-04T19:38:57;98853.88;;;2.62;48.08
59194;BME280;44967;48.598;15.650;2023-04-04T19:43:58;98860.00;;;2.64;49.26
59194;BME280;44967;48.598;15.650;2023-04-04T19:46:26;98857.34;;;2.61;47.30
59194;BME280;44967;48.598;15.650;2023-04-04T19:48:53;98856.53;;;2.66;47.00
59194;BME280;44967;48.598;15.650;2023-04-04T19:53:53;98853.91;;;2.65;47.36
59194;BME280;44967;48.598;15.650;2023-04-04T19:56:21;98861.84;;;2.77;47.89
59194;BME280;44967;48.598;15.650;2023-04-04T19:58:55;98865.38;;;2.82;46.71
59194;BME280;44967;48.598;15.650;2023-04-04T20:01:26;98860.19;;;2.85;47.17
59194;BME280;44967;48.598;15.650;2023-04-04T20:03:58;98866.31;;;2.87;47.80
59194;BME280;44967;48.598;15.650;2023-04-04T20:06:28;98870.66;;;2.87;47.59
59194;BME280;44967;48.598;15.650;2023-04-04T20:09:00;98870.50;;;2.71;46.11
59194;BME280;44967;48.598;15.650;2023-04-04T20:11:28;98861.78;;;2.69;47.98
59194;BME280;44967;48.598;15.650;2023-04-04T20:13:55;98870.50;;;2.73;48.26
59194;BME280;44967;48.598;15.650;2023-04-04T20:16:21;98864.34;;;2.63;47.50
59194;BME280;44967;48.598;15.650;2023-04-04T20:18:49;98869.56;;;2.63;46.92
59194;BME280;44967;48.598;15.650;2023-04-04T20:21:18;98869.47;;;2.57;47.93
59194;BME280;44967;48.598;15.650;2023-04-04T20:29:29;98865.91;;;2.49;48.95
59194;BME280;44967;48.598;15.650;2023-04-04T20:31:58;98876.31;;;2.43;48.31
59194;BME280;44967;48.598;15.650;2023-04-04T20:34:43;98878.19;;;2.56;48.80
59194;BME280;44967;48.598;15.650;2023-04-04T20:37:18;98875.69;;;2.67;47.30
59194;BME280;44967;48.598;15.650;2023-04-04T20:39:49;98876.56;;;2.67;47.45
59194;BME280;44967;48.598;15.650;2023-04-04T20:44:51;98881.31;;;2.25;47.70
59194;BME280;44967;48.598;15.650;2023-04-04T20:47:48;98885.56;;;2.17;47.00
59194;BME280;44967;48.598;15.650;2023-04-04T20:53:03;98885.78;;;2.35;46.42
59194;BME280;44967;48.598;15.650;2023-04-04T20:55:31;98891.66;;;2.19;47.25
59194;BME280;44967;48.598;15.650;2023-04-04T20:58:22;98886.25;;;2.04;46.95
59194;BME280;44967;48.598;15.650;2023-04-04T21:00:49;98889.53;;;1.87;47.13
59194;BME280;44967;48.598;15.650;2023-04-04T21:05:51;98892.06;;;1.83;47.29
59194;BME280;44967;48.598;15.650;2023-04-04T21:08:37;98897.47;;;1.97;46.89
59194;BME280;44967;48.598;15.650;2023-04-04T21:11:03;98890.69;;;2.09;47.30
59194;BME280;44967;48.598;15.650;2023-04-04T21:13:34;98895.84;;;2.06;47.57
59194;BME280;44967;48.598;15.650;2023-04-04T21:16:07;98897.63;;;2.10;47.14
59194;BME280;44967;48.598;15.650;2023-04-04T21:18:34;98901.16;;;2.12;47.95
59194;BME280;44967;48.598;15.650;2023-04-04T21:26:03;98905.38;;;2.06;47.07
59194;BME280;44967;48.598;15.650;2023-04-04T21:28:36;98900.97;;;1.99;47.94
59194;BME280;44967;48.598;15.650;2023-04-04T21:31:15;98899.97;;;1.89;46.98
59194;BME280;44967;48.598;15.650;2023-04-04T21:33:44;98899.25;;;2.02;47.55
59194;BME280;44967;48.598;15.650;2023-04-04T21:36:23;98901.88;;;2.01;47.93
59194;BME280;44967;48.598;15.650;2023-04-04T21:38:55;98904.53;;;2.05;47.32
59194;BME280;44967;48.598;15.650;2023-04-04T21:41:32;98899.19;;;1.98;47.96
59194;BME280;44967;48.598;15.650;2023-04-04T21:44:05;98894.97;;;2.06;47.37
59194;BME280;44967;48.598;15.650;2023-04-04T21:46:35;98895.66;;;1.89;48.38
59194;BME280;44967;48.598;15.650;2023-04-04T21:49:02;98894.38;;;1.63;49.88
59194;BME280;44967;48.598;15.650;2023-04-04T21:51:28;98888.09;;;1.46;51.12
59194;BME280;44967;48.598;15.650;2023-04-04T21:53:54;98890.41;;;1.31;51.13
59194;BME280;44967;48.598;15.650;2023-04-04T21:56:20;98889.44;;;1.23;52.00
59194;BME280;44967;48.598;15.650;2023-04-04T21:58:52;98885.09;;;1.22;50.78
59194;BME280;44967;48.598;15.650;2023-04-04T22:01:19;98877.16;;;1.14;50.38
59194;BME280;44967;48.598;15.650;2023-04-04T22:03:45;98881.06;;;0.88;51.49
59194;BME280;44967;48.598;15.650;2023-04-04T22:06:11;98885.41;;;0.89;51.63
59194;BME280;44967;48.598;15.650;2023-04-04T22:08:36;98880.13;;;0.84;51.11
59194;BME280;44967;48.598;15.650;2023-04-04T22:11:02;98880.97;;;0.82;50.97
59194;BME280;44967;48.598;15.650;2023-04-04T22:13:28;98882.75;;;0.86;50.55
59194;BME280;44967;48.598;15.650;2023-04-04T22:16:07;98877.78;;;0.98;50.90
59194;BME280;44967;48.598;15.650;2023-04-04T22:18:40;98872.31;;;0.83;51.08
59194;BME280;44967;48.598;15.650;2023-04-04T22:21:07;98873.75;;;0.67;52.60
59194;BME280;44967;48.598;15.650;2023-04-04T22:23:33;98868.28;;;0.52;52.22
59194;BME280;44967;48.598;15.650;2023-04-04T22:26:09;98862.28;;;0.55;52.35
59194;BME280;44967;48.598;15.650;2023-04-04T22:28:36;98870.03;;;0.53;52.38
59194;BME280;44967;48.598;15.650;2023-04-04T22:31:04;98870.81;;;0.49;52.11
59194;BME280;44967;48.598;15.650;2023-04-04T22:33:30;98857.09;;;0.56;51.63
59194;BME280;44967;48.598;15.650;2023-04-04T22:36:02;98864.13;;;0.62;51.36
59194;BME280;44967;48.598;15.650;2023-04-04T22:38:28;98866.41;;;0.45;51.76
59194;BME280;44967;48.598;15.650;2023-04-04T22:40:55;98871.66;;;0.48;52.16
59194;BME280;44967;48.598;15.650;2023-04-04T22:43:21;98869.94;;;0.47;52.14
59194;BME280;44967;48.598;15.650;2023-04-04T22:45:48;98874.22;;;0.45;52.00
59194;BME280;44967;48.598;15.650;2023-04-04T22:48:14;98877.66;;;0.42;52.18
59194;BME280;44967;48.598;15.650;2023-04-04T22:50:40;98873.84;;;0.25;52.46
59194;BME280;44967;48.598;15.650;2023-04-04T22:53:06;98869.47;;;0.24;52.21
59194;BME280;44967;48.598;15.650;2023-04-04T22:55:38;98869.53;;;0.26;51.98
59194;BME280;44967;48.598;15.650;2023-04-04T22:58:04;98871.09;;;0.18;51.98
59194;BME280;44967;48.598;15.650;2023-04-04T23:00:33;98868.59;;;0.24;51.63
59194;BME280;44967;48.598;15.650;2023-04-04T23:02:59;98868.34;;;0.10;51.86
59194;BME280;44967;48.598;15.650;2023-04-04T23:05:26;98862.00;;;-0.04;53.05
59194;BME280;44967;48.598;15.650;2023-04-04T23:07:52;98861.25;;;0.02;53.49
59194;BME280;44967;48.598;15.650;2023-04-04T23:10:19;98860.72;;;-0.23;54.05
59194;BME280;44967;48.598;15.650;2023-04-04T23:12:45;98864.19;;;-0.24;54.36
59194;BME280;44967;48.598;15.650;2023-04-04T23:15:12;98863.38;;;-0.20;54.05
59194;BME280;44967;48.598;15.650;2023-04-04T23:17:38;98854.59;;;-0.26;54.32
59194;BME280;44967;48.598;15.650;2023-04-04T23:20:05;98857.78;;;-0.39;53.84
59194;BME280;44967;48.598;15.650;2023-04-04T23:22:37;98857.59;;;-0.47;54.05
59194;BME280;44967;48.598;15.650;2023-04-04T23:25:06;98856.94;;;-0.38;54.23
59194;BME280;44967;48.598;15.650;2023-04-04T23:27:33;98859.53;;;-0.38;54.78
59194;BME280;44967;48.598;15.650;2023-04-04T23:29:59;98858.09;;;-0.26;53.43
59194;BME280;44967;48.598;15.650;2023-04-04T23:32:29;98857.81;;;-0.38;53.97
59194;BME280;44967;48.598;15.650;2023-04-04T23:34:55;98849.09;;;-0.41;54.53
59194;BME280;44967;48.598;15.650;2023-04-04T23:37:21;98849.19;;;-0.37;54.22
59194;BME280;44967;48.598;15.650;2023-04-04T23:39:47;98843.97;;;-0.38;54.12
59194;BME280;44967;48.598;15.650;2023-04-04T23:42:12;98853.41;;;-0.42;54.04
59194;BME280;44967;48.598;15.650;2023-04-04T23:44:38;98849.56;;;-0.59;54.55
59194;BME280;44967;48.598;15.650;2023-04-04T23:47:04;98846.00;;;-0.64;55.29
59194;BME280;44967;48.598;15.650;2023-04-04T23:49:30;98840.16;;;-0.54;54.60
59194;BME280;44967;48.598;15.650;2023-04-04T23:51:56;98841.97;;;-0.52;54.13
59194;BME280;44967;48.598;15.650;2023-04-04T23:54:22;98842.19;;;-0.41;53.64
59194;BME280;44967;48.598;15.650;2023-04-04T23:56:48;98842.91;;;-0.47;54.07
59194;BME280;44967;48.598;15.650;2023-04-04T23:59:13;98834.06;;;-0.56;54.48
